»·PEaware :: N4114C KAVX-KSAN

N4114C :: KAVX-KSAN

FLIGHT INFORMATION

Flight Status: Arrived
Operator: Privately registered:
United States
More flights under this callsign
Pilot: Jasen B. (27581)
Aircraft: BEECH AIRCRAFT SUPER KING AIR 350
(B350)
More flights by this aircraft type
Origin: KAVX Catalina
United States
Destination: KSAN San Diego Intl-Lindbergh
United States
More flights between these airports :: More routes between these airports
Route: +SXC V208 LAX118R CARDI MZB320R MZB
File this flight plan on PilotEdge
Remarks: I-8 check flight
Altitude:
(Current/Filed)
9,000ft
Speed:
(Current/Filed)
240kts
Departed: 18-Jan-20 09:35 AM
Arrived: 18-Jan-20 10:09 AM
Distance/Time
Traveled:
74nm/0:34
Distance/Time
To Go:
Arrived

Flight Plot

Page will automatically refresh every two minutes.


Map Options




Map Legend


Flown Route
Filed Route
Departure Airport
Arrival Airport
Navaid (VOR, NDB)
Fix

Horizontal Profiles

Position Reports

Time Latitude Longitude Heading Altitude Ground
Speed
18-Jan-20 09:12 33.403201 -118.415687 22 1606ft 0kts
18-Jan-20 09:13 33.403201 -118.415687 22 1606ft 0kts
18-Jan-20 09:14 33.403201 -118.415687 22 1606ft 0kts
18-Jan-20 09:15 33.403201 -118.415687 22 1606ft 0kts
18-Jan-20 09:16 33.403201 -118.415687 22 1606ft 0kts
18-Jan-20 09:17 33.403201 -118.415687 22 1606ft 0kts
18-Jan-20 09:18 33.403201 -118.415687 22 1606ft 0kts
18-Jan-20 09:19 33.403201 -118.415687 22 1606ft 0kts
18-Jan-20 09:20 33.403201 -118.415687 22 1606ft 0kts
18-Jan-20 09:21 33.403201 -118.415687 22 1606ft 0kts
18-Jan-20 09:22 33.403201 -118.415687 22 1606ft 0kts
18-Jan-20 09:23 33.403201 -118.415687 22 1606ft 0kts
18-Jan-20 09:24 33.403201 -118.415687 22 1606ft 0kts
18-Jan-20 09:25 33.403201 -118.415687 22 1606ft 0kts
18-Jan-20 09:26 33.403201 -118.415687 22 1606ft 0kts
18-Jan-20 09:27 33.403201 -118.415687 22 1606ft 0kts
18-Jan-20 09:28 33.403201 -118.415687 22 1606ft 0kts
18-Jan-20 09:29 33.403201 -118.415687 22 1606ft 0kts
18-Jan-20 09:30 33.403422 -118.415574 23 1606ft 6kts
18-Jan-20 09:31 33.405139 -118.414895 53 1606ft 14kts
18-Jan-20 09:32 33.407294 -118.411444 330 1606ft 0kts
18-Jan-20 09:33 33.407097 -118.412241 234 1606ft 34kts
18-Jan-20 09:34 33.390891 -118.447559 253 2859ft 144kts
18-Jan-20 09:35 33.359543 -118.436568 76 4184ft 196kts
18-Jan-20 09:36 33.368196 -118.378093 92 6769ft 182kts
18-Jan-20 09:37 33.361638 -118.317069 97 8869ft 190kts
18-Jan-20 09:38 33.351559 -118.241430 98 9010ft 261kts
18-Jan-20 09:39 33.339625 -118.152774 98 8997ft 274kts
18-Jan-20 09:40 33.327578 -118.062190 98 8997ft 276kts
18-Jan-20 09:41 33.315443 -117.971251 98 8997ft 278kts
18-Jan-20 09:42 33.303197 -117.879953 98 8997ft 278kts
18-Jan-20 09:43 33.290720 -117.788422 98 8997ft 278kts
18-Jan-20 09:44 33.278110 -117.697171 98 8997ft 279kts
18-Jan-20 09:45 33.265623 -117.605858 98 8996ft 278kts
18-Jan-20 09:46 33.253380 -117.516327 98 8995ft 268kts
18-Jan-20 09:47 33.225692 -117.436697 141 8997ft 267kts
18-Jan-20 09:48 33.154646 -117.421144 182 8997ft 266kts
18-Jan-20 09:49 33.085599 -117.392970 156 8997ft 266kts
18-Jan-20 09:50 33.018124 -117.356472 154 8997ft 266kts
18-Jan-20 09:51 32.950841 -117.319185 155 8996ft 266kts
18-Jan-20 09:52 32.883771 -117.282023 155 8996ft 266kts
18-Jan-20 09:53 32.820417 -117.239309 119 8868ft 256kts
18-Jan-20 09:54 32.805053 -117.162357 101 7347ft 227kts
18-Jan-20 09:55 32.791314 -117.087258 101 6998ft 242kts
18-Jan-20 09:56 32.776633 -117.006546 101 6964ft 248kts
18-Jan-20 09:57 32.763069 -116.932249 101 6950ft 216kts
18-Jan-20 09:58 32.750675 -116.864848 101 6947ft 203kts
18-Jan-20 09:59 32.738703 -116.800092 103 6943ft 194kts
18-Jan-20 10:00 32.698311 -116.810377 262 5816ft 218kts
18-Jan-20 10:01 32.688237 -116.879592 256 4991ft 188kts
18-Jan-20 10:02 32.673452 -116.934774 268 3979ft 167kts
18-Jan-20 10:03 32.682756 -116.981339 288 3549ft 142kts
18-Jan-20 10:04 32.694721 -117.029656 287 2641ft 145kts
18-Jan-20 10:05 32.706253 -117.077280 287 1941ft 143kts
18-Jan-20 10:06 32.716417 -117.120216 288 1324ft 135kts
18-Jan-20 10:07 32.726911 -117.162713 286 435ft 133kts
18-Jan-20 10:08 32.733915 -117.188081 17 22ft 0kts
18-Jan-20 10:09 32.733910 -117.185621 111 22ft 11kts
18-Jan-20 10:10 32.732524 -117.179541 35 22ft 14kts
18-Jan-20 10:11 32.733069 -117.179090 40 22ft 0kts

Navigation Log

Ident Type
Flight plan parsing failed, navigation log unavailable